Puerto Madryn, Argentina
Current Conditions -  °F | °C
As of 2:00 AM on Saturday 29 Nov 2014 (Local Time) from SAVC Reporting Station
Few Clouds Few Clouds  
Wind Chill: 12°   Ceiling: Unl
Heat Index: 12°   Visibility: 6mi
Dew Point: -1°   Wind: 15mph
Humidity: 41%   Direction: 270°W
Pressure: 29.71"   Gusts: NA
Location:  42.77°S, 65.05°W
Report Text: SAVC 290500Z 27013KT 9999 FEW035 12/M01 Q1006
Loading
Personal Weather Stations






























Interactive Weather Map New forecast layout! Learn more

10-Day Weather Forecast

Advertisements
Track Severe Weather on mobile